Shirley P. Settoon — WDF9252 — position and weather

sailwx.info

Track history (hours):
 
Tides and Currents Weather Stations Pressure Air Temp Water Temp Dewpoint Dewpoint Depression Visibility Wind Speed Wind Dir Waves Ship Positions

Shirley P. Settoon

Owner: Settoon Towing, LLC, Houma, LA. More information available from US FCC via Universal Licensing System and Coast Guard Vessel Documentation Center.

Last reported at 2015-Sep-04 05:09 UTC. Time now 2015-Sep-04 18:53 UTC.
Position N 29°54' W 090°06'.

Length 32 m.

Type: Towing. MMSI: 367503240.

Date/timePositionNaut miles runAvg speedWind from/ knotsBaromVisibWave heightAir tempDewpointWater temp
2015-Sep-04 05:09N 29°54' W 090°06'0 0.0
2015-Sep-03 17:26N 29°54' W 090°06'0 0.0
2015-Sep-03 16:32N 29°54' W 090°06'0 0.0
2015-Sep-03 15:33N 29°54' W 090°06'0 0.0
2015-Sep-03 14:33N 29°54' W 090°06'0 0.0
2015-Sep-03 13:20N 29°54' W 090°06'0 0.0
2015-Sep-03 12:33N 29°54' W 090°06'0 0.0
2015-Sep-03 11:33N 29°54' W 090°06'3 3.0
2015-Sep-03 10:33N 29°56' W 090°04'3 0.2
2015-Sep-02 21:19N 29°56' W 090°00'0 0.0
2015-Sep-02 02:16N 29°56' W 090°00'  
2015-Aug-30 15:32N 29°51' W 090°04'0 0.0
2015-Aug-30 14:22N 29°51' W 090°04'19 0.7
2015-Aug-29 11:12N 29°59' W 090°24'0 0.0
2015-Aug-29 10:18N 29°59' W 090°24'  
2015-Aug-26 05:28N 29°54' W 090°06'0 0.0
2015-Aug-26 04:33N 29°54' W 090°06'0 0.0
2015-Aug-26 02:10N 29°54' W 090°06'0 0.0
2015-Aug-26 01:29N 29°54' W 090°06'3 1.0
2015-Aug-25 22:22N 29°56' W 090°03'3 2.9
2015-Aug-25 21:28N 29°56' W 090°00'0 0.0
2015-Aug-25 20:19N 29°56' W 090°00'0 0.0
2015-Aug-25 19:33N 29°56' W 090°00'0 0.0
2015-Aug-25 18:23N 29°56' W 090°00'0 0.0
2015-Aug-25 17:22N 29°56' W 090°00'0 0.0
2015-Aug-25 16:31N 29°56' W 090°00'0 0.0
2015-Aug-25 15:27N 29°56' W 090°00'0 0.0
2015-Aug-25 14:26N 29°56' W 090°00'0 0.0
2015-Aug-25 13:32N 29°56' W 090°00'0 0.0
2015-Aug-25 12:27N 29°56' W 090°00'0 0.0
2015-Aug-25 10:29N 29°56' W 090°00'0 0.0
2015-Aug-25 09:32N 29°56' W 090°00'  
Track history (hours):
 
Tides and Currents Weather Stations Pressure Air Temp Water Temp Dewpoint Dewpoint Depression Visibility Wind Speed Wind Dir Waves Ship Positions

Shirley P. Settoon

Owner: Settoon Towing, LLC, Houma, LA. More information available from US FCC via Universal Licensing System and Coast Guard Vessel Documentation Center.

Last reported at 2015-Sep-04 05:09 UTC. Time now 2015-Sep-04 18:53 UTC.
Position N 29°54' W 090°06'.

Length 32 m.

Type: Towing. MMSI: 367503240.

Date/timePositionNaut miles runAvg speedWind from/ knotsBaromVisibWave heightAir tempDewpointWater temp
2015-Sep-04 05:09N 29°54' W 090°06'0 0.0
2015-Sep-03 17:26N 29°54' W 090°06'0 0.0
2015-Sep-03 16:32N 29°54' W 090°06'0 0.0
2015-Sep-03 15:33N 29°54' W 090°06'0 0.0
2015-Sep-03 14:33N 29°54' W 090°06'0 0.0
2015-Sep-03 13:20N 29°54' W 090°06'0 0.0
2015-Sep-03 12:33N 29°54' W 090°06'0 0.0
2015-Sep-03 11:33N 29°54' W 090°06'3 3.0
2015-Sep-03 10:33N 29°56' W 090°04'3 0.2
2015-Sep-02 21:19N 29°56' W 090°00'0 0.0
2015-Sep-02 02:16N 29°56' W 090°00'  
2015-Aug-30 15:32N 29°51' W 090°04'0 0.0
2015-Aug-30 14:22N 29°51' W 090°04'19 0.7
2015-Aug-29 11:12N 29°59' W 090°24'0 0.0
2015-Aug-29 10:18N 29°59' W 090°24'  
2015-Aug-26 05:28N 29°54' W 090°06'0 0.0
2015-Aug-26 04:33N 29°54' W 090°06'0 0.0
2015-Aug-26 02:10N 29°54' W 090°06'0 0.0
2015-Aug-26 01:29N 29°54' W 090°06'3 1.0
2015-Aug-25 22:22N 29°56' W 090°03'3 2.9
2015-Aug-25 21:28N 29°56' W 090°00'0 0.0
2015-Aug-25 20:19N 29°56' W 090°00'0 0.0
2015-Aug-25 19:33N 29°56' W 090°00'0 0.0
2015-Aug-25 18:23N 29°56' W 090°00'0 0.0
2015-Aug-25 17:22N 29°56' W 090°00'0 0.0
2015-Aug-25 16:31N 29°56' W 090°00'0 0.0
2015-Aug-25 15:27N 29°56' W 090°00'0 0.0
2015-Aug-25 14:26N 29°56' W 090°00'0 0.0
2015-Aug-25 13:32N 29°56' W 090°00'0 0.0
2015-Aug-25 12:27N 29°56' W 090°00'0 0.0
2015-Aug-25 10:29N 29°56' W 090°00'0 0.0
2015-Aug-25 09:32N 29°56' W 090°00'  

Dump ship's entire track history